PWSweather.com
Personal Weather Stations
Station Observations
MENWDWX1
Menstrie, ScotlandGB

MenstrieScotlandGB

Lat: 56.148322, Lon: -3.85483

Elevation: 62

Station Type: Davis Vantage Pro 2

High Low Average
Temperature 44.9°F7.2°C 37.0°F2.8°C 41.4°F5.2°C
Dew Point 37.8°F3.2°C 31.1°F-0.5°C 34.8°F1.6°C
Winds 5.8 mph 9.3 kmh Calm Calm 1.0 mph SSE1.6 kmh SSE
Wind Gusts 8.1 mph13.0 kmh -- 2.0 mph3.2 kmh
Humidity 80% 76% 77%
Pressure 29.52 in999.7 mb 29.26 in990.9 mb -
Precipitation 0.00 in0.0 mm - -
Hour Temp Dew Point Humidity Winds Wind Gusts Pressure Precip Precip Rate Daily Precip Total
12:00 AM 40.5°F4.7°C 34.8°F1.6°C 80% Calm Calm -- 29.27 in991.2 mb - 0.00 in0.0 mm 0.00 in0.0 mm
12:05 AM 40.2°F4.6°C 34.5°F1.4°C 80% Calm Calm -- 29.27 in991.2 mb - 0.00 in0.0 mm 0.00 in0.0 mm
12:10 AM 39.9°F4.4°C 34.3°F1.3°C 80% 3.5 mph N5.6 kmh N 4.6 mph7.4 kmh 29.27 in991.2 mb - 0.00 in0.0 mm 0.00 in0.0 mm
12:15 AM 39.5°F4.2°C 33.9°F1.1°C 80% 3.5 mph NNW5.6 kmh NNW 4.6 mph7.4 kmh 29.27 in991.2 mb - 0.00 in0.0 mm 0.00 in0.0 mm
12:20 AM 39.3°F4.1°C 33.3°F0.7°C 79% 3.5 mph NNW5.6 kmh NNW 5.8 mph9.3 kmh 29.27 in991.2 mb - 0.00 in0.0 mm 0.00 in0.0 mm
12:25 AM 39.3°F4.1°C 33.6°F0.9°C 80% 2.3 mph N3.7 kmh N 3.5 mph5.6 kmh 29.27 in991.2 mb - 0.00 in0.0 mm 0.00 in0.0 mm
12:30 AM 39.3°F4.1°C 33.6°F0.9°C 80% 2.3 mph N3.7 kmh N 3.5 mph5.6 kmh 29.27 in991.2 mb - 0.00 in0.0 mm 0.00 in0.0 mm
12:35 AM 39.3°F4.1°C 33.6°F0.9°C 80% 2.3 mph N3.7 kmh N 3.5 mph5.6 kmh 29.27 in991.2 mb - 0.00 in0.0 mm 0.00 in0.0 mm
12:40 AM 39.4°F4.1°C 33.7°F0.9°C 80% Calm Calm -- 29.27 in991.2 mb - 0.00 in0.0 mm 0.00 in0.0 mm
12:45 AM 39.5°F4.2°C 33.8°F1.0°C 80% 1.2 mph N1.9 kmh N 2.3 mph3.7 kmh 29.27 in991.2 mb - 0.00 in0.0 mm 0.00 in0.0 mm
12:50 AM 39.6°F4.2°C 33.9°F1.1°C 80% 1.2 mph N1.9 kmh N 3.5 mph5.6 kmh 29.27 in991.2 mb - 0.00 in0.0 mm 0.00 in0.0 mm
12:55 AM 39.5°F4.2°C 33.9°F1.1°C 80% 2.3 mph N3.7 kmh N 3.5 mph5.6 kmh 29.27 in991.2 mb - 0.00 in0.0 mm 0.00 in0.0 mm
01:00 AM 39.4°F4.1°C 33.4°F0.8°C 79% 2.3 mph N3.7 kmh N 2.3 mph3.7 kmh 29.27 in991.2 mb - 0.00 in0.0 mm 0.00 in0.0 mm
01:05 AM 39.2°F4.0°C 33.2°F0.7°C 79% 3.5 mph N5.6 kmh N 4.6 mph7.4 kmh 29.27 in991.2 mb - 0.00 in0.0 mm 0.00 in0.0 mm
01:10 AM 39.0°F3.9°C 33.0°F0.6°C 79% 3.5 mph N5.6 kmh N 8.1 mph13.0 kmh 29.26 in990.9 mb - 0.00 in0.0 mm 0.00 in0.0 mm
01:15 AM 38.7°F3.7°C 32.8°F0.4°C 79% 3.5 mph N5.6 kmh N 3.5 mph5.6 kmh 29.26 in990.9 mb - 0.00 in0.0 mm 0.00 in0.0 mm
01:20 AM 38.6°F3.7°C 32.6°F0.3°C 79% 5.8 mph N9.3 kmh N 8.1 mph13.0 kmh 29.26 in990.9 mb - 0.00 in0.0 mm 0.00 in0.0 mm
01:25 AM 38.7°F3.7°C 32.7°F0.4°C 79% 2.3 mph N3.7 kmh N 4.6 mph7.4 kmh 29.26 in990.9 mb - 0.00 in0.0 mm 0.00 in0.0 mm
01:30 AM 38.6°F3.7°C 32.6°F0.3°C 79% 2.3 mph NNW3.7 kmh NNW 8.1 mph13.0 kmh 29.26 in990.9 mb - 0.00 in0.0 mm 0.00 in0.0 mm
01:35 AM 38.4°F3.6°C 32.5°F0.3°C 79% 3.5 mph N5.6 kmh N 5.8 mph9.3 kmh 29.26 in990.9 mb - 0.00 in0.0 mm 0.00 in0.0 mm
01:40 AM 38.2°F3.4°C 32.3°F0.2°C 79% 2.3 mph N3.7 kmh N 6.9 mph11.1 kmh 29.27 in991.2 mb - 0.00 in0.0 mm 0.00 in0.0 mm
01:45 AM 38.1°F3.4°C 32.2°F0.1°C 79% 3.5 mph N5.6 kmh N 3.5 mph5.6 kmh 29.26 in990.9 mb - 0.00 in0.0 mm 0.00 in0.0 mm
01:50 AM 38.0°F3.3°C 32.1°F0.1°C 79% 1.2 mph N1.9 kmh N 3.5 mph5.6 kmh 29.26 in990.9 mb - 0.00 in0.0 mm 0.00 in0.0 mm
01:55 AM 37.9°F3.3°C 32.0°F0.0°C 79% 1.2 mph NNE1.9 kmh NNE 1.2 mph1.9 kmh 29.26 in990.9 mb - 0.00 in0.0 mm 0.00 in0.0 mm
02:00 AM 37.8°F3.2°C 31.9°F-0.1°C 79% 1.2 mph NNE1.9 kmh NNE 3.5 mph5.6 kmh 29.26 in990.9 mb - 0.00 in0.0 mm 0.00 in0.0 mm
02:05 AM 37.7°F3.2°C 31.8°F-0.1°C 79% 1.2 mph NNE1.9 kmh NNE 3.5 mph5.6 kmh 29.26 in990.9 mb - 0.00 in0.0 mm 0.00 in0.0 mm
02:10 AM 37.7°F3.2°C 31.8°F-0.1°C 79% 1.2 mph NNE1.9 kmh NNE 2.3 mph3.7 kmh 29.26 in990.9 mb - 0.00 in0.0 mm 0.00 in0.0 mm
02:15 AM 37.5°F3.1°C 31.6°F-0.2°C 79% 1.2 mph NNE1.9 kmh NNE 1.2 mph1.9 kmh 29.26 in990.9 mb - 0.00 in0.0 mm 0.00 in0.0 mm
02:20 AM 37.4°F3.0°C 31.5°F-0.3°C 79% Calm Calm -- 29.26 in990.9 mb - 0.00 in0.0 mm 0.00 in0.0 mm
02:25 AM 37.2°F2.9°C 31.3°F-0.4°C 79% 2.3 mph NNE3.7 kmh NNE 2.3 mph3.7 kmh 29.26 in990.9 mb - 0.00 in0.0 mm 0.00 in0.0 mm
02:30 AM 37.0°F2.8°C 31.1°F-0.5°C 79% Calm Calm -- 29.26 in990.9 mb - 0.00 in0.0 mm 0.00 in0.0 mm
02:35 AM 37.0°F2.8°C 31.1°F-0.5°C 79% 1.2 mph NNE1.9 kmh NNE 2.3 mph3.7 kmh 29.26 in990.9 mb - 0.00 in0.0 mm 0.00 in0.0 mm
02:40 AM 37.1°F2.8°C 31.2°F-0.4°C 79% Calm Calm 1.2 mph1.9 kmh 29.26 in990.9 mb - 0.00 in0.0 mm 0.00 in0.0 mm
02:45 AM 37.3°F2.9°C 31.4°F-0.3°C 79% Calm Calm 1.2 mph1.9 kmh 29.27 in991.2 mb - 0.00 in0.0 mm 0.00 in0.0 mm
02:50 AM 37.4°F3.0°C 31.5°F-0.3°C 79% 1.2 mph NNE1.9 kmh NNE 1.2 mph1.9 kmh 29.27 in991.2 mb - 0.00 in0.0 mm 0.00 in0.0 mm
02:55 AM 37.5°F3.1°C 31.6°F-0.2°C 79% Calm Calm -- 29.27 in991.2 mb - 0.00 in0.0 mm 0.00 in0.0 mm
03:00 AM 37.5°F3.1°C 31.6°F-0.2°C 79% Calm Calm -- 29.27 in991.2 mb - 0.00 in0.0 mm 0.00 in0.0 mm
03:05 AM 37.5°F3.1°C 31.6°F-0.2°C 79% Calm Calm -- 29.27 in991.2 mb - 0.00 in0.0 mm 0.00 in0.0 mm
03:10 AM 37.5°F3.1°C 31.6°F-0.2°C 79% Calm Calm -- 29.27 in991.2 mb - 0.00 in0.0 mm 0.00 in0.0 mm
03:15 AM 37.5°F3.1°C 31.6°F-0.2°C 79% 2.3 mph NNE3.7 kmh NNE 3.5 mph5.6 kmh 29.27 in991.2 mb - 0.00 in0.0 mm 0.00 in0.0 mm
03:20 AM 37.6°F3.1°C 31.7°F-0.2°C 79% 1.2 mph NNE1.9 kmh NNE 2.3 mph3.7 kmh 29.27 in991.2 mb - 0.00 in0.0 mm 0.00 in0.0 mm
03:25 AM 37.7°F3.2°C 31.8°F-0.1°C 79% 2.3 mph NNE3.7 kmh NNE 2.3 mph3.7 kmh 29.27 in991.2 mb - 0.00 in0.0 mm 0.00 in0.0 mm
03:30 AM 37.7°F3.2°C 32.1°F0.1°C 80% Calm Calm -- 29.27 in991.2 mb - 0.00 in0.0 mm 0.00 in0.0 mm
03:35 AM 37.8°F3.2°C 32.2°F0.1°C 80% 1.2 mph NNE1.9 kmh NNE 3.5 mph5.6 kmh 29.27 in991.2 mb - 0.00 in0.0 mm 0.00 in0.0 mm
03:40 AM 37.8°F3.2°C 32.2°F0.1°C 80% 2.3 mph N3.7 kmh N 3.5 mph5.6 kmh 29.27 in991.2 mb - 0.00 in0.0 mm 0.00 in0.0 mm
03:45 AM 37.9°F3.3°C 32.3°F0.2°C 80% 1.2 mph N1.9 kmh N 3.5 mph5.6 kmh 29.27 in991.2 mb - 0.00 in0.0 mm 0.00 in0.0 mm
03:50 AM 38.0°F3.3°C 32.4°F0.2°C 80% 2.3 mph N3.7 kmh N 2.3 mph3.7 kmh 29.27 in991.2 mb - 0.00 in0.0 mm 0.00 in0.0 mm
03:55 AM 38.1°F3.4°C 32.5°F0.3°C 80% 1.2 mph N1.9 kmh N 2.3 mph3.7 kmh 29.27 in991.2 mb - 0.00 in0.0 mm 0.00 in0.0 mm
04:00 AM 38.2°F3.4°C 32.6°F0.3°C 80% 1.2 mph N1.9 kmh N 2.3 mph3.7 kmh 29.27 in991.2 mb - 0.00 in0.0 mm 0.00 in0.0 mm
04:05 AM 38.2°F3.4°C 32.6°F0.3°C 80% 2.3 mph N3.7 kmh N 3.5 mph5.6 kmh 29.27 in991.2 mb - 0.00 in0.0 mm 0.00 in0.0 mm
04:10 AM 38.3°F3.5°C 32.6°F0.3°C 80% 2.3 mph N3.7 kmh N 3.5 mph5.6 kmh 29.27 in991.2 mb - 0.00 in0.0 mm 0.00 in0.0 mm
04:15 AM 38.3°F3.5°C 32.7°F0.4°C 80% 2.3 mph N3.7 kmh N 3.5 mph5.6 kmh 29.27 in991.2 mb - 0.00 in0.0 mm 0.00 in0.0 mm
04:20 AM 38.3°F3.5°C 32.4°F0.2°C 79% 1.2 mph N1.9 kmh N 2.3 mph3.7 kmh 29.27 in991.2 mb - 0.00 in0.0 mm 0.00 in0.0 mm
04:25 AM 38.3°F3.5°C 32.4°F0.2°C 79% Calm Calm -- 29.27 in991.2 mb - 0.00 in0.0 mm 0.00 in0.0 mm
04:30 AM 38.3°F3.5°C 32.4°F0.2°C 79% 1.2 mph N1.9 kmh N 2.3 mph3.7 kmh 29.27 in991.2 mb - 0.00 in0.0 mm 0.00 in0.0 mm
04:35 AM 38.3°F3.5°C 32.4°F0.2°C 79% 2.3 mph N3.7 kmh N 3.5 mph5.6 kmh 29.28 in991.5 mb - 0.00 in0.0 mm 0.00 in0.0 mm
04:40 AM 38.3°F3.5°C 32.4°F0.2°C 79% 1.2 mph N1.9 kmh N 3.5 mph5.6 kmh 29.28 in991.5 mb - 0.00 in0.0 mm 0.00 in0.0 mm
04:45 AM 38.3°F3.5°C 32.4°F0.2°C 79% 1.2 mph N1.9 kmh N 3.5 mph5.6 kmh 29.28 in991.5 mb - 0.00 in0.0 mm 0.00 in0.0 mm
04:50 AM 38.3°F3.5°C 32.4°F0.2°C 79% 2.3 mph N3.7 kmh N 2.3 mph3.7 kmh 29.28 in991.5 mb - 0.00 in0.0 mm 0.00 in0.0 mm
04:55 AM 38.3°F3.5°C 32.3°F0.2°C 79% 1.2 mph N1.9 kmh N 3.5 mph5.6 kmh 29.27 in991.2 mb - 0.00 in0.0 mm 0.00 in0.0 mm
05:00 AM 38.2°F3.4°C 32.3°F0.2°C 79% 1.2 mph N1.9 kmh N 2.3 mph3.7 kmh 29.27 in991.2 mb - 0.00 in0.0 mm 0.00 in0.0 mm
05:05 AM 38.3°F3.5°C 32.4°F0.2°C 79% 1.2 mph N1.9 kmh N 2.3 mph3.7 kmh 29.28 in991.5 mb - 0.00 in0.0 mm 0.00 in0.0 mm
05:10 AM 38.2°F3.4°C 32.3°F0.2°C 79% 2.3 mph N3.7 kmh N 2.3 mph3.7 kmh 29.28 in991.5 mb - 0.00 in0.0 mm 0.00 in0.0 mm
05:15 AM 38.2°F3.4°C 32.3°F0.2°C 79% 1.2 mph N1.9 kmh N 2.3 mph3.7 kmh 29.28 in991.5 mb - 0.00 in0.0 mm 0.00 in0.0 mm
05:20 AM 38.1°F3.4°C 32.2°F0.1°C 79% Calm Calm 1.2 mph1.9 kmh 29.28 in991.5 mb - 0.00 in0.0 mm 0.00 in0.0 mm
05:25 AM 38.1°F3.4°C 32.2°F0.1°C 79% Calm Calm 1.2 mph1.9 kmh 29.28 in991.5 mb - 0.00 in0.0 mm 0.00 in0.0 mm
05:30 AM 38.0°F3.3°C 32.1°F0.1°C 79% Calm Calm -- 29.28 in991.5 mb - 0.00 in0.0 mm 0.00 in0.0 mm
05:35 AM 38.0°F3.3°C 32.1°F0.1°C 79% Calm Calm -- 29.28 in991.5 mb - 0.00 in0.0 mm 0.00 in0.0 mm
05:40 AM 38.1°F3.4°C 32.2°F0.1°C 79% Calm Calm 2.3 mph3.7 kmh 29.28 in991.5 mb - 0.00 in0.0 mm 0.00 in0.0 mm
05:45 AM 38.3°F3.5°C 32.4°F0.2°C 79% 3.5 mph E5.6 kmh E 3.5 mph5.6 kmh 29.29 in991.9 mb - 0.00 in0.0 mm 0.00 in0.0 mm
05:50 AM 39.0°F3.9°C 33.3°F0.7°C 80% 3.5 mph E5.6 kmh E 4.6 mph7.4 kmh 29.29 in991.9 mb - 0.00 in0.0 mm 0.00 in0.0 mm
05:55 AM 39.5°F4.2°C 33.8°F1.0°C 80% 4.6 mph E7.4 kmh E 6.9 mph11.1 kmh 29.29 in991.9 mb - 0.00 in0.0 mm 0.00 in0.0 mm
06:00 AM 39.7°F4.3°C 33.7°F0.9°C 79% 4.6 mph E7.4 kmh E 5.8 mph9.3 kmh 29.29 in991.9 mb - 0.00 in0.0 mm 0.00 in0.0 mm
06:05 AM 39.8°F4.3°C 33.8°F1.0°C 79% 4.6 mph E7.4 kmh E 6.9 mph11.1 kmh 29.29 in991.9 mb - 0.00 in0.0 mm 0.00 in0.0 mm
06:10 AM 40.0°F4.4°C 34.0°F1.1°C 79% 3.5 mph E5.6 kmh E 3.5 mph5.6 kmh 29.29 in991.9 mb - 0.00 in0.0 mm 0.00 in0.0 mm
06:15 AM 40.0°F4.4°C 34.0°F1.1°C 79% 2.3 mph ENE3.7 kmh ENE 3.5 mph5.6 kmh 29.29 in991.9 mb - 0.00 in0.0 mm 0.00 in0.0 mm
06:20 AM 40.1°F4.5°C 34.1°F1.2°C 79% 4.6 mph E7.4 kmh E 8.1 mph13.0 kmh 29.29 in991.9 mb - 0.00 in0.0 mm 0.00 in0.0 mm
06:25 AM 40.2°F4.6°C 34.2°F1.2°C 79% 4.6 mph E7.4 kmh E 6.9 mph11.1 kmh 29.29 in991.9 mb - 0.00 in0.0 mm 0.00 in0.0 mm
06:30 AM 40.2°F4.6°C 34.2°F1.2°C 79% 2.3 mph E3.7 kmh E 5.8 mph9.3 kmh 29.29 in991.9 mb - 0.00 in0.0 mm 0.00 in0.0 mm
06:35 AM 40.2°F4.6°C 34.2°F1.2°C 79% 1.2 mph E1.9 kmh E 1.2 mph1.9 kmh 29.29 in991.9 mb - 0.00 in0.0 mm 0.00 in0.0 mm
06:40 AM 40.1°F4.5°C 33.8°F1.0°C 78% Calm Calm 1.2 mph1.9 kmh 29.29 in991.9 mb - 0.00 in0.0 mm 0.00 in0.0 mm
06:45 AM 40.0°F4.4°C 33.7°F0.9°C 78% 3.5 mph E5.6 kmh E 3.5 mph5.6 kmh 29.29 in991.9 mb - 0.00 in0.0 mm 0.00 in0.0 mm
06:50 AM 40.0°F4.4°C 33.7°F0.9°C 78% 2.3 mph SE3.7 kmh SE 6.9 mph11.1 kmh 29.29 in991.9 mb - 0.00 in0.0 mm 0.00 in0.0 mm
06:55 AM 40.0°F4.4°C 33.7°F0.9°C 78% 2.3 mph E3.7 kmh E 4.6 mph7.4 kmh 29.29 in991.9 mb - 0.00 in0.0 mm 0.00 in0.0 mm
07:00 AM 39.9°F4.4°C 33.9°F1.1°C 79% Calm Calm -- 29.29 in991.9 mb - 0.00 in0.0 mm 0.00 in0.0 mm
07:05 AM 39.8°F4.3°C 33.8°F1.0°C 79% Calm Calm -- 29.29 in991.9 mb - 0.00 in0.0 mm 0.00 in0.0 mm
07:10 AM 39.7°F4.3°C 33.8°F1.0°C 79% Calm Calm -- 29.29 in991.9 mb - 0.00 in0.0 mm 0.00 in0.0 mm
07:15 AM 39.7°F4.3°C 33.7°F0.9°C 79% Calm Calm -- 29.29 in991.9 mb - 0.00 in0.0 mm 0.00 in0.0 mm
07:20 AM 39.7°F4.3°C 33.7°F0.9°C 79% 1.2 mph ENE1.9 kmh ENE 2.3 mph3.7 kmh 29.29 in991.9 mb - 0.00 in0.0 mm 0.00 in0.0 mm
07:25 AM 39.7°F4.3°C 33.7°F0.9°C 79% Calm Calm -- 29.29 in991.9 mb - 0.00 in0.0 mm 0.00 in0.0 mm
07:30 AM 39.8°F4.3°C 33.8°F1.0°C 79% Calm Calm -- 29.29 in991.9 mb - 0.00 in0.0 mm 0.00 in0.0 mm
07:35 AM 39.9°F4.4°C 33.9°F1.1°C 79% Calm Calm -- 29.30 in992.2 mb - 0.00 in0.0 mm 0.00 in0.0 mm
07:40 AM 40.1°F4.5°C 34.1°F1.2°C 79% Calm Calm -- 29.30 in992.2 mb - 0.00 in0.0 mm 0.00 in0.0 mm
07:45 AM 40.2°F4.6°C 34.2°F1.2°C 79% Calm Calm -- 29.30 in992.2 mb - 0.00 in0.0 mm 0.00 in0.0 mm
07:50 AM 40.4°F4.7°C 34.4°F1.3°C 79% Calm Calm -- 29.30 in992.2 mb - 0.00 in0.0 mm 0.00 in0.0 mm
07:55 AM 40.5°F4.7°C 34.5°F1.4°C 79% Calm Calm -- 29.30 in992.2 mb - 0.00 in0.0 mm 0.00 in0.0 mm
08:00 AM 40.7°F4.8°C 34.7°F1.5°C 79% Calm Calm -- 29.30 in992.2 mb - 0.00 in0.0 mm 0.00 in0.0 mm
08:05 AM 40.8°F4.9°C 34.8°F1.6°C 79% Calm Calm -- 29.30 in992.2 mb - 0.00 in0.0 mm 0.00 in0.0 mm
08:10 AM 41.0°F5.0°C 35.0°F1.7°C 79% Calm Calm -- 29.30 in992.2 mb - 0.00 in0.0 mm 0.00 in0.0 mm
08:15 AM 41.1°F5.1°C 35.0°F1.7°C 79% Calm Calm 1.2 mph1.9 kmh 29.30 in992.2 mb - 0.00 in0.0 mm 0.00 in0.0 mm
08:20 AM 41.1°F5.1°C 34.8°F1.6°C 78% 3.5 mph ESE5.6 kmh ESE 4.6 mph7.4 kmh 29.31 in992.6 mb - 0.00 in0.0 mm 0.00 in0.0 mm
08:25 AM 41.2°F5.1°C 34.9°F1.6°C 78% 2.3 mph SE3.7 kmh SE 3.5 mph5.6 kmh 29.31 in992.6 mb - 0.00 in0.0 mm 0.00 in0.0 mm
08:30 AM 41.3°F5.2°C 35.0°F1.7°C 78% 2.3 mph SE3.7 kmh SE 3.5 mph5.6 kmh 29.31 in992.6 mb - 0.00 in0.0 mm 0.00 in0.0 mm
08:35 AM 41.4°F5.2°C 35.1°F1.7°C 78% 2.3 mph E3.7 kmh E 3.5 mph5.6 kmh 29.31 in992.6 mb - 0.00 in0.0 mm 0.00 in0.0 mm
08:40 AM 41.4°F5.2°C 35.1°F1.7°C 78% 2.3 mph SE3.7 kmh SE 3.5 mph5.6 kmh 29.31 in992.6 mb - 0.00 in0.0 mm 0.00 in0.0 mm
08:45 AM 41.5°F5.3°C 35.2°F1.8°C 78% 2.3 mph E3.7 kmh E 2.3 mph3.7 kmh 29.31 in992.6 mb - 0.00 in0.0 mm 0.00 in0.0 mm
08:50 AM 41.6°F5.3°C 35.2°F1.8°C 78% 1.2 mph E1.9 kmh E 1.2 mph1.9 kmh 29.31 in992.6 mb - 0.00 in0.0 mm 0.00 in0.0 mm
08:55 AM 41.7°F5.4°C 35.3°F1.8°C 78% Calm Calm 2.3 mph3.7 kmh 29.31 in992.6 mb - 0.00 in0.0 mm 0.00 in0.0 mm
09:00 AM 41.8°F5.4°C 35.4°F1.9°C 78% Calm Calm 2.3 mph3.7 kmh 29.32 in992.9 mb - 0.00 in0.0 mm 0.00 in0.0 mm
09:05 AM 41.8°F5.4°C 35.4°F1.9°C 78% 1.2 mph ESE1.9 kmh ESE 2.3 mph3.7 kmh 29.32 in992.9 mb - 0.00 in0.0 mm 0.00 in0.0 mm
09:10 AM 41.8°F5.4°C 35.4°F1.9°C 78% 1.2 mph ESE1.9 kmh ESE 2.3 mph3.7 kmh 29.32 in992.9 mb - 0.00 in0.0 mm 0.00 in0.0 mm
09:15 AM 41.7°F5.4°C 35.3°F1.8°C 78% 2.3 mph SE3.7 kmh SE 3.5 mph5.6 kmh 29.32 in992.9 mb - 0.00 in0.0 mm 0.00 in0.0 mm
09:20 AM 41.8°F5.4°C 35.4°F1.9°C 78% 2.3 mph SE3.7 kmh SE 3.5 mph5.6 kmh 29.32 in992.9 mb - 0.00 in0.0 mm 0.00 in0.0 mm
09:25 AM 41.9°F5.5°C 35.5°F1.9°C 78% 2.3 mph SE3.7 kmh SE 3.5 mph5.6 kmh 29.32 in992.9 mb - 0.00 in0.0 mm 0.00 in0.0 mm
09:30 AM 42.0°F5.6°C 35.6°F2.0°C 78% 1.2 mph SE1.9 kmh SE 3.5 mph5.6 kmh 29.32 in992.9 mb - 0.00 in0.0 mm 0.00 in0.0 mm
09:35 AM 42.1°F5.6°C 35.7°F2.1°C 78% 2.3 mph SE3.7 kmh SE 3.5 mph5.6 kmh 29.33 in993.2 mb - 0.00 in0.0 mm 0.00 in0.0 mm
09:40 AM 42.2°F5.7°C 35.8°F2.1°C 78% 2.3 mph SE3.7 kmh SE 3.5 mph5.6 kmh 29.33 in993.2 mb - 0.00 in0.0 mm 0.00 in0.0 mm
09:45 AM 42.2°F5.7°C 35.8°F2.1°C 78% 3.5 mph ESE5.6 kmh ESE 3.5 mph5.6 kmh 29.33 in993.2 mb - 0.00 in0.0 mm 0.00 in0.0 mm
09:50 AM 42.2°F5.7°C 35.8°F2.1°C 78% 2.3 mph SE3.7 kmh SE 4.6 mph7.4 kmh 29.33 in993.2 mb - 0.00 in0.0 mm 0.00 in0.0 mm
09:55 AM 42.2°F5.7°C 35.5°F1.9°C 77% 1.2 mph SSE1.9 kmh SSE 2.3 mph3.7 kmh 29.33 in993.2 mb - 0.00 in0.0 mm 0.00 in0.0 mm
10:00 AM 42.3°F5.7°C 35.6°F2.0°C 77% 2.3 mph SE3.7 kmh SE 2.3 mph3.7 kmh 29.33 in993.2 mb - 0.00 in0.0 mm 0.00 in0.0 mm
10:05 AM 42.5°F5.8°C 35.8°F2.1°C 77% 3.5 mph SE5.6 kmh SE 4.6 mph7.4 kmh 29.33 in993.2 mb - 0.00 in0.0 mm 0.00 in0.0 mm
10:10 AM 42.5°F5.8°C 35.8°F2.1°C 77% 4.6 mph E7.4 kmh E 6.9 mph11.1 kmh 29.33 in993.2 mb - 0.00 in0.0 mm 0.00 in0.0 mm
10:15 AM 42.6°F5.9°C 35.9°F2.2°C 77% 2.3 mph SE3.7 kmh SE 3.5 mph5.6 kmh 29.34 in993.6 mb - 0.00 in0.0 mm 0.00 in0.0 mm
10:20 AM 42.9°F6.1°C 36.2°F2.3°C 77% 3.5 mph E5.6 kmh E 5.8 mph9.3 kmh 29.34 in993.6 mb - 0.00 in0.0 mm 0.00 in0.0 mm
10:25 AM 43.0°F6.1°C 36.3°F2.4°C 77% 3.5 mph SE5.6 kmh SE 3.5 mph5.6 kmh 29.34 in993.6 mb - 0.00 in0.0 mm 0.00 in0.0 mm
10:30 AM 43.2°F6.2°C 36.5°F2.5°C 77% 2.3 mph E3.7 kmh E 3.5 mph5.6 kmh 29.34 in993.6 mb - 0.00 in0.0 mm 0.00 in0.0 mm
10:35 AM 43.4°F6.3°C 36.7°F2.6°C 77% 2.3 mph E3.7 kmh E 5.8 mph9.3 kmh 29.34 in993.6 mb - 0.00 in0.0 mm 0.00 in0.0 mm
10:40 AM 43.7°F6.5°C 37.0°F2.8°C 77% 1.2 mph E1.9 kmh E 5.8 mph9.3 kmh 29.34 in993.6 mb - 0.00 in0.0 mm 0.00 in0.0 mm
10:45 AM 43.8°F6.6°C 36.7°F2.6°C 76% 2.3 mph E3.7 kmh E 3.5 mph5.6 kmh 29.34 in993.6 mb - 0.00 in0.0 mm 0.00 in0.0 mm
10:50 AM 43.8°F6.6°C 36.7°F2.6°C 76% 2.3 mph SSE3.7 kmh SSE 4.6 mph7.4 kmh 29.34 in993.6 mb - 0.00 in0.0 mm 0.00 in0.0 mm
10:55 AM 43.9°F6.6°C 36.9°F2.7°C 76% 2.3 mph SE3.7 kmh SE 3.5 mph5.6 kmh 29.34 in993.6 mb - 0.00 in0.0 mm 0.00 in0.0 mm
11:00 AM 44.1°F6.7°C 37.0°F2.8°C 76% 2.3 mph SE3.7 kmh SE 2.3 mph3.7 kmh 29.34 in993.6 mb - 0.00 in0.0 mm 0.00 in0.0 mm
11:05 AM 44.2°F6.8°C 37.1°F2.8°C 76% 1.2 mph SE1.9 kmh SE 3.5 mph5.6 kmh 29.35 in993.9 mb - 0.00 in0.0 mm 0.00 in0.0 mm
11:10 AM 44.3°F6.8°C 37.2°F2.9°C 76% Calm Calm -- 29.35 in993.9 mb - 0.00 in0.0 mm 0.00 in0.0 mm
11:15 AM 44.3°F6.8°C 37.2°F2.9°C 76% 3.5 mph E5.6 kmh E 3.5 mph5.6 kmh 29.35 in993.9 mb - 0.00 in0.0 mm 0.00 in0.0 mm
11:20 AM 44.4°F6.9°C 37.3°F2.9°C 76% 1.2 mph E1.9 kmh E 3.5 mph5.6 kmh 29.35 in993.9 mb - 0.00 in0.0 mm 0.00 in0.0 mm
11:25 AM 44.5°F6.9°C 37.4°F3.0°C 76% 2.3 mph E3.7 kmh E 3.5 mph5.6 kmh 29.35 in993.9 mb - 0.00 in0.0 mm 0.00 in0.0 mm
11:30 AM 44.5°F6.9°C 37.4°F3.0°C 76% 1.2 mph SSE1.9 kmh SSE 4.6 mph7.4 kmh 29.35 in993.9 mb - 0.00 in0.0 mm 0.00 in0.0 mm
11:35 AM 44.6°F7.0°C 37.5°F3.1°C 76% 1.2 mph SSE1.9 kmh SSE 2.3 mph3.7 kmh 29.35 in993.9 mb - 0.00 in0.0 mm 0.00 in0.0 mm
11:40 AM 44.6°F7.0°C 37.5°F3.1°C 76% 1.2 mph ESE1.9 kmh ESE 2.3 mph3.7 kmh 29.35 in993.9 mb - 0.00 in0.0 mm 0.00 in0.0 mm
11:45 AM 44.7°F7.1°C 37.6°F3.1°C 76% 1.2 mph ESE1.9 kmh ESE 2.3 mph3.7 kmh 29.35 in993.9 mb - 0.00 in0.0 mm 0.00 in0.0 mm
11:50 AM 44.9°F7.2°C 37.8°F3.2°C 76% 1.2 mph SE1.9 kmh SE 3.5 mph5.6 kmh 29.36 in994.2 mb - 0.00 in0.0 mm 0.00 in0.0 mm
11:55 AM 44.7°F7.1°C 37.6°F3.1°C 76% 1.2 mph SE1.9 kmh SE 2.3 mph3.7 kmh 29.35 in993.9 mb - 0.00 in0.0 mm 0.00 in0.0 mm
12:00 PM 44.7°F7.1°C 37.6°F3.1°C 76% 2.3 mph SE3.7 kmh SE 3.5 mph5.6 kmh 29.36 in994.2 mb - 0.00 in0.0 mm 0.00 in0.0 mm
12:05 PM 44.6°F7.0°C 37.5°F3.1°C 76% 1.2 mph ESE1.9 kmh ESE 3.5 mph5.6 kmh 29.35 in993.9 mb - 0.00 in0.0 mm 0.00 in0.0 mm
12:10 PM 44.6°F7.0°C 37.5°F3.1°C 76% 2.3 mph S3.7 kmh S 3.5 mph5.6 kmh 29.36 in994.2 mb - 0.00 in0.0 mm 0.00 in0.0 mm
12:15 PM 44.5°F6.9°C 37.4°F3.0°C 76% 3.5 mph SSW5.6 kmh SSW 4.6 mph7.4 kmh 29.36 in994.2 mb - 0.00 in0.0 mm 0.00 in0.0 mm
12:20 PM 44.3°F6.8°C 37.2°F2.9°C 76% 3.5 mph S5.6 kmh S 3.5 mph5.6 kmh 29.36 in994.2 mb - 0.00 in0.0 mm 0.00 in0.0 mm
12:25 PM 44.3°F6.8°C 37.2°F2.9°C 76% 2.3 mph S3.7 kmh S 2.3 mph3.7 kmh 29.36 in994.2 mb - 0.00 in0.0 mm 0.00 in0.0 mm
12:30 PM 44.4°F6.9°C 37.3°F2.9°C 76% 1.2 mph S1.9 kmh S 3.5 mph5.6 kmh 29.36 in994.2 mb - 0.00 in0.0 mm 0.00 in0.0 mm
12:35 PM 44.5°F6.9°C 37.4°F3.0°C 76% 2.3 mph SSE3.7 kmh SSE 4.6 mph7.4 kmh 29.36 in994.2 mb - 0.00 in0.0 mm 0.00 in0.0 mm
12:40 PM 44.5°F6.9°C 37.4°F3.0°C 76% 2.3 mph SSE3.7 kmh SSE 3.5 mph5.6 kmh 29.36 in994.2 mb - 0.00 in0.0 mm 0.00 in0.0 mm
12:45 PM 44.4°F6.9°C 37.3°F2.9°C 76% 3.5 mph SSE5.6 kmh SSE 4.6 mph7.4 kmh 29.36 in994.2 mb - 0.00 in0.0 mm 0.00 in0.0 mm
12:50 PM 44.4°F6.9°C 37.3°F2.9°C 76% 2.3 mph S3.7 kmh S 3.5 mph5.6 kmh 29.36 in994.2 mb - 0.00 in0.0 mm 0.00 in0.0 mm
12:55 PM 44.4°F6.9°C 37.3°F2.9°C 76% 2.3 mph S3.7 kmh S 2.3 mph3.7 kmh 29.36 in994.2 mb - 0.00 in0.0 mm 0.00 in0.0 mm
01:00 PM 44.3°F6.8°C 37.2°F2.9°C 76% 3.5 mph SSE5.6 kmh SSE 4.6 mph7.4 kmh 29.36 in994.2 mb - 0.00 in0.0 mm 0.00 in0.0 mm
01:05 PM 44.2°F6.8°C 37.1°F2.8°C 76% 2.3 mph S3.7 kmh S 4.6 mph7.4 kmh 29.36 in994.2 mb - 0.00 in0.0 mm 0.00 in0.0 mm
01:10 PM 44.2°F6.8°C 37.1°F2.8°C 76% 3.5 mph SSW5.6 kmh SSW 3.5 mph5.6 kmh 29.37 in994.6 mb - 0.00 in0.0 mm 0.00 in0.0 mm
01:15 PM 44.2°F6.8°C 37.1°F2.8°C 76% 2.3 mph SSE3.7 kmh SSE 4.6 mph7.4 kmh 29.36 in994.2 mb - 0.00 in0.0 mm 0.00 in0.0 mm
01:20 PM 44.2°F6.8°C 37.1°F2.8°C 76% 2.3 mph SSE3.7 kmh SSE 3.5 mph5.6 kmh 29.36 in994.2 mb - 0.00 in0.0 mm 0.00 in0.0 mm
01:25 PM 44.3°F6.8°C 37.2°F2.9°C 76% 2.3 mph SSE3.7 kmh SSE 4.6 mph7.4 kmh 29.36 in994.2 mb - 0.00 in0.0 mm 0.00 in0.0 mm
01:30 PM 44.2°F6.8°C 37.1°F2.8°C 76% 1.2 mph SSE1.9 kmh SSE 2.3 mph3.7 kmh 29.37 in994.6 mb - 0.00 in0.0 mm 0.00 in0.0 mm
01:35 PM 44.2°F6.8°C 37.1°F2.8°C 76% 2.3 mph SSE3.7 kmh SSE 3.5 mph5.6 kmh 29.37 in994.6 mb - 0.00 in0.0 mm 0.00 in0.0 mm
01:40 PM 44.2°F6.8°C 37.1°F2.8°C 76% 1.2 mph SSE1.9 kmh SSE 2.3 mph3.7 kmh 29.37 in994.6 mb - 0.00 in0.0 mm 0.00 in0.0 mm
01:45 PM 44.1°F6.7°C 37.0°F2.8°C 76% 3.5 mph SSE5.6 kmh SSE 4.6 mph7.4 kmh 29.37 in994.6 mb - 0.00 in0.0 mm 0.00 in0.0 mm
01:50 PM 44.0°F6.7°C 36.9°F2.7°C 76% 1.2 mph SSE1.9 kmh SSE 2.3 mph3.7 kmh 29.37 in994.6 mb - 0.00 in0.0 mm 0.00 in0.0 mm
01:55 PM 44.0°F6.7°C 36.9°F2.7°C 76% 1.2 mph SSE1.9 kmh SSE 2.3 mph3.7 kmh 29.37 in994.6 mb - 0.00 in0.0 mm 0.00 in0.0 mm
02:00 PM 43.9°F6.6°C 36.8°F2.7°C 76% 2.3 mph SSE3.7 kmh SSE 3.5 mph5.6 kmh 29.37 in994.6 mb - 0.00 in0.0 mm 0.00 in0.0 mm
02:05 PM 43.8°F6.6°C 36.7°F2.6°C 76% Calm Calm -- 29.38 in994.9 mb - 0.00 in0.0 mm 0.00 in0.0 mm
02:10 PM 43.7°F6.5°C 36.7°F2.6°C 76% 1.2 mph SSE1.9 kmh SSE 2.3 mph3.7 kmh 29.38 in994.9 mb - 0.00 in0.0 mm 0.00 in0.0 mm
02:15 PM 43.7°F6.5°C 36.6°F2.6°C 76% 1.2 mph SSE1.9 kmh SSE 2.3 mph3.7 kmh 29.38 in994.9 mb - 0.00 in0.0 mm 0.00 in0.0 mm
02:20 PM 43.6°F6.4°C 36.5°F2.5°C 76% Calm Calm 1.2 mph1.9 kmh 29.38 in994.9 mb - 0.00 in0.0 mm 0.00 in0.0 mm
02:25 PM 43.7°F6.5°C 36.6°F2.6°C 76% Calm Calm -- 29.38 in994.9 mb - 0.00 in0.0 mm 0.00 in0.0 mm
02:30 PM 43.8°F6.6°C 36.7°F2.6°C 76% Calm Calm -- 29.38 in994.9 mb - 0.00 in0.0 mm 0.00 in0.0 mm
02:35 PM 43.8°F6.6°C 36.7°F2.6°C 76% Calm Calm -- 29.38 in994.9 mb - 0.00 in0.0 mm 0.00 in0.0 mm
02:40 PM 43.8°F6.6°C 36.7°F2.6°C 76% Calm Calm -- 29.38 in994.9 mb - 0.00 in0.0 mm 0.00 in0.0 mm
02:45 PM 43.9°F6.6°C 36.8°F2.7°C 76% 2.3 mph SE3.7 kmh SE 3.5 mph5.6 kmh 29.39 in995.3 mb - 0.00 in0.0 mm 0.00 in0.0 mm
02:50 PM 43.9°F6.6°C 36.8°F2.7°C 76% 1.2 mph SE1.9 kmh SE 1.2 mph1.9 kmh 29.39 in995.3 mb - 0.00 in0.0 mm 0.00 in0.0 mm
02:55 PM 43.9°F6.6°C 36.8°F2.7°C 76% 1.2 mph SE1.9 kmh SE 3.5 mph5.6 kmh 29.39 in995.3 mb - 0.00 in0.0 mm 0.00 in0.0 mm
03:00 PM 43.9°F6.6°C 36.8°F2.7°C 76% 1.2 mph SE1.9 kmh SE 2.3 mph3.7 kmh 29.39 in995.3 mb - 0.00 in0.0 mm 0.00 in0.0 mm
03:05 PM 43.8°F6.6°C 36.7°F2.6°C 76% 2.3 mph SE3.7 kmh SE 3.5 mph5.6 kmh 29.39 in995.3 mb - 0.00 in0.0 mm 0.00 in0.0 mm
03:10 PM 43.8°F6.6°C 36.7°F2.6°C 76% 2.3 mph SE3.7 kmh SE 2.3 mph3.7 kmh 29.39 in995.3 mb - 0.00 in0.0 mm 0.00 in0.0 mm
03:15 PM 43.8°F6.6°C 36.7°F2.6°C 76% 1.2 mph SE1.9 kmh SE 1.2 mph1.9 kmh 29.39 in995.3 mb - 0.00 in0.0 mm 0.00 in0.0 mm
03:20 PM 43.6°F6.4°C 36.6°F2.6°C 76% 1.2 mph SE1.9 kmh SE 3.5 mph5.6 kmh 29.39 in995.3 mb - 0.00 in0.0 mm 0.00 in0.0 mm
03:25 PM 43.4°F6.3°C 36.3°F2.4°C 76% 2.3 mph SE3.7 kmh SE 3.5 mph5.6 kmh 29.39 in995.3 mb - 0.00 in0.0 mm 0.00 in0.0 mm
03:30 PM 43.3°F6.3°C 36.2°F2.3°C 76% 1.2 mph SE1.9 kmh SE 2.3 mph3.7 kmh 29.40 in995.6 mb - 0.00 in0.0 mm 0.00 in0.0 mm
03:35 PM 43.3°F6.3°C 36.2°F2.3°C 76% Calm Calm -- 29.40 in995.6 mb - 0.00 in0.0 mm 0.00 in0.0 mm
03:40 PM 43.3°F6.3°C 36.2°F2.3°C 76% Calm Calm -- 29.39 in995.3 mb - 0.00 in0.0 mm 0.00 in0.0 mm
03:45 PM 43.4°F6.3°C 36.3°F2.4°C 76% Calm Calm -- 29.40 in995.6 mb - 0.00 in0.0 mm 0.00 in0.0 mm
03:50 PM 43.5°F6.4°C 36.5°F2.5°C 76% 1.2 mph SE1.9 kmh SE 2.3 mph3.7 kmh 29.40 in995.6 mb - 0.00 in0.0 mm 0.00 in0.0 mm
03:55 PM 43.7°F6.5°C 36.6°F2.6°C 76% 1.2 mph SE1.9 kmh SE 1.2 mph1.9 kmh 29.40 in995.6 mb - 0.00 in0.0 mm 0.00 in0.0 mm
04:00 PM 43.8°F6.6°C 36.7°F2.6°C 76% Calm Calm -- 29.40 in995.6 mb - 0.00 in0.0 mm 0.00 in0.0 mm
04:05 PM 43.9°F6.6°C 36.8°F2.7°C 76% Calm Calm -- 29.40 in995.6 mb - 0.00 in0.0 mm 0.00 in0.0 mm
04:10 PM 44.0°F6.7°C 36.9°F2.7°C 76% Calm Calm -- 29.40 in995.6 mb - 0.00 in0.0 mm 0.00 in0.0 mm
04:15 PM 44.0°F6.7°C 36.9°F2.7°C 76% Calm Calm -- 29.40 in995.6 mb - 0.00 in0.0 mm 0.00 in0.0 mm
04:20 PM 44.1°F6.7°C 37.0°F2.8°C 76% Calm Calm -- 29.40 in995.6 mb - 0.00 in0.0 mm 0.00 in0.0 mm
04:25 PM 44.1°F6.7°C 37.0°F2.8°C 76% Calm Calm -- 29.40 in995.6 mb - 0.00 in0.0 mm 0.00 in0.0 mm
04:30 PM 44.0°F6.7°C 36.9°F2.7°C 76% 1.2 mph SE1.9 kmh SE 1.2 mph1.9 kmh 29.40 in995.6 mb - 0.00 in0.0 mm 0.00 in0.0 mm
04:35 PM 43.9°F6.6°C 36.8°F2.7°C 76% 1.2 mph SE1.9 kmh SE 2.3 mph3.7 kmh 29.40 in995.6 mb - 0.00 in0.0 mm 0.00 in0.0 mm
04:40 PM 43.9°F6.6°C 36.8°F2.7°C 76% 2.3 mph WSW3.7 kmh WSW 3.5 mph5.6 kmh 29.40 in995.6 mb - 0.00 in0.0 mm 0.00 in0.0 mm
04:45 PM 43.9°F6.6°C 36.8°F2.7°C 76% Calm Calm 1.2 mph1.9 kmh 29.40 in995.6 mb - 0.00 in0.0 mm 0.00 in0.0 mm
04:50 PM 43.7°F6.5°C 36.6°F2.6°C 76% Calm Calm -- 29.41 in995.9 mb - 0.00 in0.0 mm 0.00 in0.0 mm
04:55 PM 43.7°F6.5°C 36.6°F2.6°C 76% Calm Calm -- 29.41 in995.9 mb - 0.00 in0.0 mm 0.00 in0.0 mm
05:00 PM 43.6°F6.4°C 36.5°F2.5°C 76% 1.2 mph SW1.9 kmh SW 1.2 mph1.9 kmh 29.41 in995.9 mb - 0.00 in0.0 mm 0.00 in0.0 mm
05:05 PM 43.5°F6.4°C 36.4°F2.4°C 76% 1.2 mph E1.9 kmh E 2.3 mph3.7 kmh 29.41 in995.9 mb - 0.00 in0.0 mm 0.00 in0.0 mm
05:10 PM 43.5°F6.4°C 36.4°F2.4°C 76% Calm Calm 1.2 mph1.9 kmh 29.41 in995.9 mb - 0.00 in0.0 mm 0.00 in0.0 mm
05:15 PM 43.4°F6.3°C 36.4°F2.4°C 76% Calm Calm 1.2 mph1.9 kmh 29.41 in995.9 mb - 0.00 in0.0 mm 0.00 in0.0 mm
05:20 PM 43.4°F6.3°C 36.4°F2.4°C 76% 1.2 mph ESE1.9 kmh ESE 1.2 mph1.9 kmh 29.41 in995.9 mb - 0.00 in0.0 mm 0.00 in0.0 mm
05:25 PM 43.4°F6.3°C 36.3°F2.4°C 76% Calm Calm 2.3 mph3.7 kmh 29.41 in995.9 mb - 0.00 in0.0 mm 0.00 in0.0 mm
05:30 PM 43.4°F6.3°C 36.3°F2.4°C 76% Calm Calm 1.2 mph1.9 kmh 29.41 in995.9 mb - 0.00 in0.0 mm 0.00 in0.0 mm
05:35 PM 43.4°F6.3°C 36.3°F2.4°C 76% Calm Calm -- 29.41 in995.9 mb - 0.00 in0.0 mm 0.00 in0.0 mm
05:40 PM 43.3°F6.3°C 36.2°F2.3°C 76% Calm Calm -- 29.42 in996.3 mb - 0.00 in0.0 mm 0.00 in0.0 mm
05:45 PM 43.3°F6.3°C 36.2°F2.3°C 76% Calm Calm -- 29.42 in996.3 mb - 0.00 in0.0 mm 0.00 in0.0 mm
05:50 PM 43.2°F6.2°C 36.5°F2.5°C 77% Calm Calm -- 29.42 in996.3 mb - 0.00 in0.0 mm 0.00 in0.0 mm
05:55 PM 43.1°F6.2°C 36.4°F2.4°C 77% Calm Calm -- 29.42 in996.3 mb - 0.00 in0.0 mm 0.00 in0.0 mm
06:00 PM 43.0°F6.1°C 36.0°F2.2°C 76% Calm Calm -- 29.42 in996.3 mb - 0.00 in0.0 mm 0.00 in0.0 mm
06:05 PM 42.9°F6.1°C 35.9°F2.2°C 76% Calm Calm -- 29.42 in996.3 mb - 0.00 in0.0 mm 0.00 in0.0 mm
06:10 PM 42.8°F6.0°C 35.8°F2.1°C 76% Calm Calm -- 29.43 in996.6 mb - 0.00 in0.0 mm 0.00 in0.0 mm
06:15 PM 42.8°F6.0°C 35.8°F2.1°C 76% Calm Calm -- 29.43 in996.6 mb - 0.00 in0.0 mm 0.00 in0.0 mm
06:20 PM 42.7°F5.9°C 36.0°F2.2°C 77% Calm Calm -- 29.43 in996.6 mb - 0.00 in0.0 mm 0.00 in0.0 mm
06:25 PM 42.7°F5.9°C 36.0°F2.2°C 77% Calm Calm -- 29.43 in996.6 mb - 0.00 in0.0 mm 0.00 in0.0 mm
06:30 PM 42.6°F5.9°C 35.9°F2.2°C 77% Calm Calm -- 29.43 in996.6 mb - 0.00 in0.0 mm 0.00 in0.0 mm
06:35 PM 42.5°F5.8°C 35.8°F2.1°C 77% Calm Calm -- 29.43 in996.6 mb - 0.00 in0.0 mm 0.00 in0.0 mm
06:40 PM 42.5°F5.8°C 35.8°F2.1°C 77% 2.3 mph E3.7 kmh E 3.5 mph5.6 kmh 29.44 in997.0 mb - 0.00 in0.0 mm 0.00 in0.0 mm
06:45 PM 42.4°F5.8°C 35.7°F2.1°C 77% Calm Calm 1.2 mph1.9 kmh 29.44 in997.0 mb - 0.00 in0.0 mm 0.00 in0.0 mm
06:50 PM 42.4°F5.8°C 35.7°F2.1°C 77% Calm Calm -- 29.44 in997.0 mb - 0.00 in0.0 mm 0.00 in0.0 mm
06:55 PM 42.3°F5.7°C 35.6°F2.0°C 77% Calm Calm -- 29.44 in997.0 mb - 0.00 in0.0 mm 0.00 in0.0 mm
07:00 PM 42.2°F5.7°C 35.5°F1.9°C 77% Calm Calm -- 29.45 in997.3 mb - 0.00 in0.0 mm 0.00 in0.0 mm
07:05 PM 42.2°F5.7°C 35.5°F1.9°C 77% Calm Calm -- 29.45 in997.3 mb - 0.00 in0.0 mm 0.00 in0.0 mm
07:10 PM 42.1°F5.6°C 35.4°F1.9°C 77% Calm Calm -- 29.45 in997.3 mb - 0.00 in0.0 mm 0.00 in0.0 mm
07:15 PM 42.0°F5.6°C 35.3°F1.8°C 77% 1.2 mph WNW1.9 kmh WNW 3.5 mph5.6 kmh 29.45 in997.3 mb - 0.00 in0.0 mm 0.00 in0.0 mm
07:20 PM 41.9°F5.5°C 35.2°F1.8°C 77% Calm Calm 1.2 mph1.9 kmh 29.45 in997.3 mb - 0.00 in0.0 mm 0.00 in0.0 mm
07:25 PM 41.8°F5.4°C 35.1°F1.7°C 77% Calm Calm -- 29.45 in997.3 mb - 0.00 in0.0 mm 0.00 in0.0 mm
07:30 PM 41.8°F5.4°C 35.1°F1.7°C 77% Calm Calm -- 29.45 in997.3 mb - 0.00 in0.0 mm 0.00 in0.0 mm
07:35 PM 41.7°F5.4°C 35.0°F1.7°C 77% Calm Calm -- 29.45 in997.3 mb - 0.00 in0.0 mm 0.00 in0.0 mm
07:40 PM 41.6°F5.3°C 34.9°F1.6°C 77% Calm Calm -- 29.46 in997.6 mb - 0.00 in0.0 mm 0.00 in0.0 mm
07:45 PM 41.6°F5.3°C 34.9°F1.6°C 77% Calm Calm -- 29.46 in997.6 mb - 0.00 in0.0 mm 0.00 in0.0 mm
07:50 PM 41.7°F5.4°C 35.0°F1.7°C 77% Calm Calm -- 29.46 in997.6 mb - 0.00 in0.0 mm 0.00 in0.0 mm
07:55 PM 41.7°F5.4°C 35.0°F1.7°C 77% Calm Calm 3.5 mph5.6 kmh 29.46 in997.6 mb - 0.00 in0.0 mm 0.00 in0.0 mm
08:00 PM 41.7°F5.4°C 35.0°F1.7°C 77% Calm Calm 1.2 mph1.9 kmh 29.46 in997.6 mb - 0.00 in0.0 mm 0.00 in0.0 mm
08:05 PM 41.6°F5.3°C 34.9°F1.6°C 77% 1.2 mph WNW1.9 kmh WNW 2.3 mph3.7 kmh 29.47 in998.0 mb - 0.00 in0.0 mm 0.00 in0.0 mm
08:10 PM 41.5°F5.3°C 34.8°F1.6°C 77% 1.2 mph WNW1.9 kmh WNW 1.2 mph1.9 kmh 29.47 in998.0 mb - 0.00 in0.0 mm 0.00 in0.0 mm
08:15 PM 41.5°F5.3°C 34.8°F1.6°C 77% Calm Calm -- 29.47 in998.0 mb - 0.00 in0.0 mm 0.00 in0.0 mm
08:20 PM 41.4°F5.2°C 34.7°F1.5°C 77% Calm Calm -- 29.47 in998.0 mb - 0.00 in0.0 mm 0.00 in0.0 mm
08:25 PM 41.4°F5.2°C 34.7°F1.5°C 77% Calm Calm -- 29.47 in998.0 mb - 0.00 in0.0 mm 0.00 in0.0 mm
08:30 PM 41.3°F5.2°C 34.6°F1.4°C 77% Calm Calm -- 29.47 in998.0 mb - 0.00 in0.0 mm 0.00 in0.0 mm
08:35 PM 41.2°F5.1°C 34.5°F1.4°C 77% Calm Calm -- 29.47 in998.0 mb - 0.00 in0.0 mm 0.00 in0.0 mm
08:40 PM 41.1°F5.1°C 34.4°F1.3°C 77% Calm Calm -- 29.48 in998.3 mb - 0.00 in0.0 mm 0.00 in0.0 mm
08:45 PM 41.1°F5.1°C 34.5°F1.4°C 77% Calm Calm -- 29.48 in998.3 mb - 0.00 in0.0 mm 0.00 in0.0 mm
08:50 PM 41.2°F5.1°C 34.5°F1.4°C 77% Calm Calm -- 29.48 in998.3 mb - 0.00 in0.0 mm 0.00 in0.0 mm
08:55 PM 41.1°F5.1°C 34.4°F1.3°C 77% Calm Calm -- 29.48 in998.3 mb - 0.00 in0.0 mm 0.00 in0.0 mm
09:00 PM 41.1°F5.1°C 34.4°F1.3°C 77% Calm Calm -- 29.48 in998.3 mb - 0.00 in0.0 mm 0.00 in0.0 mm
09:05 PM 41.1°F5.1°C 34.4°F1.3°C 77% Calm Calm -- 29.48 in998.3 mb - 0.00 in0.0 mm 0.00 in0.0 mm
09:10 PM 41.1°F5.1°C 34.4°F1.3°C 77% Calm Calm -- 29.48 in998.3 mb - 0.00 in0.0 mm 0.00 in0.0 mm
09:15 PM 41.0°F5.0°C 34.3°F1.3°C 77% Calm Calm -- 29.48 in998.3 mb - 0.00 in0.0 mm 0.00 in0.0 mm
09:20 PM 40.9°F4.9°C 34.2°F1.2°C 77% Calm Calm -- 29.48 in998.3 mb - 0.00 in0.0 mm 0.00 in0.0 mm
09:25 PM 40.9°F4.9°C 34.2°F1.2°C 77% Calm Calm -- 29.49 in998.6 mb - 0.00 in0.0 mm 0.00 in0.0 mm
09:30 PM 40.9°F4.9°C 34.2°F1.2°C 77% Calm Calm 2.3 mph3.7 kmh 29.49 in998.6 mb - 0.00 in0.0 mm 0.00 in0.0 mm
09:35 PM 40.9°F4.9°C 34.2°F1.2°C 77% Calm Calm 1.2 mph1.9 kmh 29.49 in998.6 mb - 0.00 in0.0 mm 0.00 in0.0 mm
09:40 PM 40.9°F4.9°C 34.2°F1.2°C 77% Calm Calm 1.2 mph1.9 kmh 29.49 in998.6 mb - 0.00 in0.0 mm 0.00 in0.0 mm
09:45 PM 40.8°F4.9°C 34.1°F1.2°C 77% 1.2 mph WNW1.9 kmh WNW 2.3 mph3.7 kmh 29.49 in998.6 mb - 0.00 in0.0 mm 0.00 in0.0 mm
09:50 PM 40.9°F4.9°C 34.2°F1.2°C 77% 1.2 mph WNW1.9 kmh WNW 2.3 mph3.7 kmh 29.49 in998.6 mb - 0.00 in0.0 mm 0.00 in0.0 mm
09:55 PM 40.9°F4.9°C 34.2°F1.2°C 77% Calm Calm -- 29.50 in999.0 mb - 0.00 in0.0 mm 0.00 in0.0 mm
10:00 PM 40.9°F4.9°C 34.2°F1.2°C 77% Calm Calm -- 29.50 in999.0 mb - 0.00 in0.0 mm 0.00 in0.0 mm
10:05 PM 40.9°F4.9°C 34.3°F1.3°C 77% Calm Calm 1.2 mph1.9 kmh 29.50 in999.0 mb - 0.00 in0.0 mm 0.00 in0.0 mm
10:10 PM 40.9°F4.9°C 34.2°F1.2°C 77% Calm Calm -- 29.50 in999.0 mb - 0.00 in0.0 mm 0.00 in0.0 mm
10:15 PM 40.9°F4.9°C 34.2°F1.2°C 77% Calm Calm -- 29.50 in999.0 mb - 0.00 in0.0 mm 0.00 in0.0 mm
10:20 PM 40.8°F4.9°C 34.1°F1.2°C 77% Calm Calm -- 29.50 in999.0 mb - 0.00 in0.0 mm 0.00 in0.0 mm
10:25 PM 40.8°F4.9°C 34.1°F1.2°C 77% Calm Calm -- 29.50 in999.0 mb - 0.00 in0.0 mm 0.00 in0.0 mm
10:30 PM 40.7°F4.8°C 34.1°F1.2°C 77% Calm Calm -- 29.50 in999.0 mb - 0.00 in0.0 mm 0.00 in0.0 mm
10:35 PM 40.7°F4.8°C 34.1°F1.2°C 77% Calm Calm -- 29.50 in999.0 mb - 0.00 in0.0 mm 0.00 in0.0 mm
10:40 PM 40.7°F4.8°C 34.0°F1.1°C 77% Calm Calm -- 29.51 in999.3 mb - 0.00 in0.0 mm 0.00 in0.0 mm
10:45 PM 40.7°F4.8°C 34.0°F1.1°C 77% Calm Calm -- 29.51 in999.3 mb - 0.00 in0.0 mm 0.00 in0.0 mm
10:50 PM 40.6°F4.8°C 34.0°F1.1°C 77% 1.2 mph WNW1.9 kmh WNW 2.3 mph3.7 kmh 29.51 in999.3 mb - 0.00 in0.0 mm 0.00 in0.0 mm
10:55 PM 40.6°F4.8°C 34.0°F1.1°C 77% 1.2 mph WNW1.9 kmh WNW 2.3 mph3.7 kmh 29.51 in999.3 mb - 0.00 in0.0 mm 0.00 in0.0 mm
11:00 PM 40.6°F4.8°C 34.0°F1.1°C 77% 2.3 mph WNW3.7 kmh WNW 3.5 mph5.6 kmh 29.51 in999.3 mb - 0.00 in0.0 mm 0.00 in0.0 mm
11:05 PM 40.7°F4.8°C 33.7°F0.9°C 76% 1.2 mph WNW1.9 kmh WNW 2.3 mph3.7 kmh 29.51 in999.3 mb - 0.00 in0.0 mm 0.00 in0.0 mm
11:10 PM 40.8°F4.9°C 34.2°F1.2°C 77% 1.2 mph WNW1.9 kmh WNW 2.3 mph3.7 kmh 29.51 in999.3 mb - 0.00 in0.0 mm 0.00 in0.0 mm
11:15 PM 40.9°F4.9°C 34.2°F1.2°C 77% 1.2 mph WNW1.9 kmh WNW 3.5 mph5.6 kmh 29.51 in999.3 mb - 0.00 in0.0 mm 0.00 in0.0 mm
11:20 PM 40.8°F4.9°C 34.1°F1.2°C 77% 2.3 mph WNW3.7 kmh WNW 3.5 mph5.6 kmh 29.51 in999.3 mb - 0.00 in0.0 mm 0.00 in0.0 mm
11:25 PM 40.9°F4.9°C 33.9°F1.1°C 76% 2.3 mph WNW3.7 kmh WNW 3.5 mph5.6 kmh 29.51 in999.3 mb - 0.00 in0.0 mm 0.00 in0.0 mm
11:30 PM 41.1°F5.1°C 34.1°F1.2°C 76% 2.3 mph NW3.7 kmh NW 3.5 mph5.6 kmh 29.51 in999.3 mb - 0.00 in0.0 mm 0.00 in0.0 mm
11:35 PM 41.3°F5.2°C 34.3°F1.3°C 76% 2.3 mph NW3.7 kmh NW 3.5 mph5.6 kmh 29.51 in999.3 mb - 0.00 in0.0 mm 0.00 in0.0 mm
11:40 PM 41.4°F5.2°C 34.4°F1.3°C 76% 2.3 mph NW3.7 kmh NW 3.5 mph5.6 kmh 29.51 in999.3 mb - 0.00 in0.0 mm 0.00 in0.0 mm
11:45 PM 41.5°F5.3°C 34.5°F1.4°C 76% 1.2 mph NW1.9 kmh NW 1.2 mph1.9 kmh 29.52 in999.7 mb - 0.00 in0.0 mm 0.00 in0.0 mm
11:50 PM 41.6°F5.3°C 34.6°F1.4°C 76% Calm Calm 1.2 mph1.9 kmh 29.52 in999.7 mb - 0.00 in0.0 mm 0.00 in0.0 mm
11:55 PM 41.6°F5.3°C 34.6°F1.4°C 76% Calm Calm -- 29.52 in999.7 mb - 0.00 in0.0 mm 0.00 in0.0 mm